createdAt,value
2022-08-05T00:00:16.678Z,5.30
2022-08-05T00:02:51.505Z,5.20
2022-08-05T00:06:01.719Z,5.18
2022-08-05T00:08:32.718Z,5.05
2022-08-05T00:11:00.582Z,5.03
2022-08-05T00:13:38.487Z,5.15
2022-08-05T00:16:11.069Z,5.35
2022-08-05T00:18:42.157Z,5.25
2022-08-05T00:21:11.976Z,5.18
2022-08-05T00:23:45.731Z,5.10
2022-08-05T00:26:15.016Z,5.20
2022-08-05T00:28:45.804Z,5.20
2022-08-05T00:31:14.376Z,5.18
2022-08-05T00:34:54.815Z,5.25
2022-08-05T00:37:10.346Z,5.00
2022-08-05T00:39:20.289Z,5.25
2022-08-05T00:41:55.152Z,5.70
2022-08-05T00:44:30.544Z,5.10
2022-08-05T00:47:02.186Z,5.05
2022-08-05T00:49:44.355Z,4.97
2022-08-05T00:52:28.130Z,5.05
2022-08-05T00:54:56.616Z,4.90
2022-08-05T00:57:25.441Z,5.50
2022-08-05T01:00:11.059Z,5.30
2022-08-05T01:02:41.440Z,5.32
2022-08-05T01:05:12.812Z,5.60
2022-08-05T01:08:29.860Z,5.15
2022-08-05T01:10:33.360Z,4.80
2022-08-05T01:13:12.997Z,4.88
2022-08-05T01:15:49.973Z,5.03
2022-08-05T01:18:28.173Z,5.32
2022-08-05T01:21:04.501Z,5.13
2022-08-05T01:23:45.704Z,5.07
2022-08-05T01:26:37.817Z,4.90
2022-08-05T01:29:09.644Z,5.05
2022-08-05T01:31:44.609Z,4.70
2022-08-05T01:34:15.108Z,5.10
2022-08-05T01:36:47.908Z,4.70
2022-08-05T01:39:46.848Z,5.22
2022-08-05T01:42:05.471Z,5.15
2022-08-05T01:44:35.604Z,5.28
2022-08-05T01:47:05.295Z,5.10
2022-08-05T01:49:59.984Z,5.10
2022-08-05T01:52:23.152Z,5.07
2022-08-05T01:54:54.455Z,4.95
2022-08-05T01:58:09.772Z,5.65
2022-08-05T02:00:15.965Z,4.70
2022-08-05T02:02:54.467Z,5.30
2022-08-05T02:05:24.212Z,4.97
2022-08-05T02:08:01.047Z,5.05
2022-08-05T02:10:35.944Z,5.03
2022-08-05T02:13:15.994Z,5.20
2022-08-05T02:15:48.105Z,4.93
2022-08-05T02:18:33.296Z,4.93
2022-08-05T02:21:05.748Z,4.53
2022-08-05T02:23:42.541Z,4.80
2022-08-05T02:26:11.737Z,4.60
2022-08-05T02:28:45.920Z,4.80
2022-08-05T02:31:17.060Z,4.65
2022-08-05T02:33:57.481Z,4.47
2022-08-05T02:36:31.152Z,4.50
2022-08-05T02:38:59.988Z,4.65
2022-08-05T02:41:43.362Z,4.60
2022-08-05T02:44:16.620Z,4.32
2022-08-05T02:46:59.807Z,4.63
2022-08-05T02:49:36.983Z,4.20
2022-08-05T02:52:06.838Z,4.78
2022-08-05T02:54:37.255Z,4.68
2022-08-05T02:57:10.338Z,4.65
2022-08-05T02:59:55.279Z,4.50
2022-08-05T03:02:27.969Z,4.60
2022-08-05T03:04:56.296Z,4.45
2022-08-05T03:08:01.930Z,4.45
2022-08-05T03:10:13.295Z,4.40
2022-08-05T03:12:41.532Z,4.65
2022-08-05T03:15:12.383Z,4.72
2022-08-05T03:17:42.202Z,4.47
2022-08-05T03:20:13.863Z,4.20
2022-08-05T03:22:44.218Z,4.50
2022-08-05T03:25:33.617Z,4.70
2022-08-05T03:28:03.510Z,4.57
2022-08-05T03:30:34.154Z,4.13
2022-08-05T03:33:05.577Z,4.40
2022-08-05T03:35:40.435Z,4.28
2022-08-05T03:38:09.873Z,4.55
2022-08-05T03:40:41.395Z,4.82
2022-08-05T03:43:59.030Z,4.38
2022-08-05T03:46:01.819Z,4.93
2022-08-05T03:48:35.399Z,4.80
2022-08-05T03:52:38.875Z,4.63
2022-08-05T03:55:52.989Z,4.40
2022-08-05T03:56:49.946Z,4.78
2022-08-05T03:59:20.462Z,4.60
2022-08-05T04:01:49.575Z,4.53
2022-08-05T04:04:21.190Z,4.53
2022-08-05T04:06:51.007Z,4.50
2022-08-05T04:09:25.828Z,4.38
2022-08-05T04:11:56.387Z,4.30
2022-08-05T04:14:30.663Z,4.93
2022-08-05T04:17:00.781Z,4.47
2022-08-05T04:19:31.905Z,4.55
2022-08-05T04:22:08.358Z,4.68
2022-08-05T04:24:44.473Z,4.32
2022-08-05T04:27:13.786Z,4.03
2022-08-05T04:29:43.541Z,4.53
2022-08-05T04:32:11.595Z,4.53
2022-08-05T04:34:43.342Z,4.60
2022-08-05T04:37:12.000Z,4.65
2022-08-05T04:39:40.954Z,4.80
2022-08-05T04:42:10.002Z,4.63
2022-08-05T04:44:39.094Z,4.40
2022-08-05T04:47:09.325Z,4.57
2022-08-05T04:50:02.509Z,4.22
2022-08-05T04:52:28.511Z,4.63
2022-08-05T04:54:57.575Z,4.20
2022-08-05T04:57:28.700Z,4.80
2022-08-05T04:59:58.592Z,4.32
2022-08-05T05:02:36.915Z,4.57
2022-08-05T05:05:16.722Z,4.72
2022-08-05T05:08:01.653Z,5.07
2022-08-05T05:10:30.852Z,4.80
2022-08-05T05:13:03.995Z,5.18
2022-08-05T05:15:59.352Z,5.10
2022-08-05T05:18:28.355Z,5.22
2022-08-05T05:20:59.954Z,5.10
2022-08-05T05:24:02.386Z,5.05
2022-08-05T05:26:18.047Z,5.10
2022-08-05T05:28:46.173Z,5.88
2022-08-05T05:31:14.487Z,5.50
2022-08-05T05:34:02.241Z,5.47
2022-08-05T05:36:31.527Z,5.03
2022-08-05T05:39:03.542Z,5.20
2022-08-05T05:41:40.668Z,4.82
2022-08-05T05:44:37.759Z,6.65
2022-08-05T05:47:02.272Z,6.15
2022-08-05T05:49:32.371Z,6.47
2022-08-05T05:52:01.361Z,6.32
2022-08-05T05:54:50.488Z,5.57
2022-08-05T05:57:20.364Z,5.72
2022-08-05T05:59:49.149Z,5.65
2022-08-05T06:02:32.413Z,4.90
2022-08-05T06:05:10.382Z,5.65
2022-08-05T06:08:01.210Z,5.50
2022-08-05T06:10:36.706Z,5.72
2022-08-05T06:13:06.191Z,6.03
2022-08-05T06:16:28.193Z,5.80
2022-08-05T06:18:31.602Z,6.15
2022-08-05T06:21:00.544Z,5.75
2022-08-05T06:23:43.805Z,5.80
2022-08-05T06:26:21.272Z,5.95
2022-08-05T06:28:52.096Z,7.10
2022-08-05T06:31:21.884Z,7.18
2022-08-05T06:34:07.530Z,7.60
2022-08-05T06:36:53.557Z,6.80
2022-08-05T06:39:27.275Z,6.70
2022-08-05T06:41:58.846Z,7.18
2022-08-05T06:44:27.330Z,6.60
2022-08-05T06:46:55.536Z,7.03
2022-08-05T06:50:02.017Z,6.80
2022-08-05T06:52:36.928Z,6.78
2022-08-05T06:55:00.410Z,6.53
2022-08-05T06:58:02.506Z,6.82
2022-08-05T07:00:24.591Z,7.07
2022-08-05T07:02:53.896Z,8.45
2022-08-05T07:05:37.009Z,7.43
2022-08-05T07:08:06.304Z,7.20
2022-08-05T07:10:39.629Z,8.35
2022-08-05T07:13:57.730Z,7.55
2022-08-05T07:17:59.045Z,7.25
2022-08-05T07:22:28.592Z,8.93
2022-08-05T07:25:23.217Z,9.25
2022-08-05T07:27:57.687Z,9.45
2022-08-05T07:30:32.562Z,9.00
2022-08-05T07:33:05.442Z,9.10
2022-08-05T07:36:02.190Z,7.97
2022-08-05T07:38:33.720Z,8.73
2022-08-05T07:42:08.363Z,9.00
2022-08-05T07:43:55.058Z,7.95
2022-08-05T07:46:26.863Z,7.90
2022-08-05T07:49:02.459Z,7.78
2022-08-05T07:51:40.663Z,8.43
2022-08-05T07:54:18.800Z,7.68
2022-08-05T07:57:13.675Z,8.20
2022-08-05T07:59:39.848Z,7.47
2022-08-05T08:02:16.082Z,7.80
2022-08-05T08:04:46.300Z,7.75
2022-08-05T08:07:14.927Z,7.60
2022-08-05T08:09:52.277Z,7.53
2022-08-05T08:12:33.446Z,7.70
2022-08-05T08:15:09.784Z,7.45
2022-08-05T08:17:49.949Z,7.57
2022-08-05T08:20:43.994Z,7.90
2022-08-05T08:24:00.236Z,8.40
2022-08-05T08:25:59.878Z,7.90
2022-08-05T08:28:37.138Z,8.10
2022-08-05T08:31:18.233Z,7.85
2022-08-05T08:33:51.551Z,8.00
2022-08-05T08:36:29.713Z,7.90
2022-08-05T08:39:15.753Z,7.80
2022-08-05T08:41:52.593Z,7.55
2022-08-05T08:45:19.497Z,7.85
2022-08-05T08:47:22.209Z,7.55
2022-08-05T08:50:30.694Z,7.88
2022-08-05T08:52:58.131Z,8.50
2022-08-05T08:56:01.634Z,8.35
2022-08-05T08:58:16.639Z,7.70
2022-08-05T09:00:44.825Z,8.02
2022-08-05T09:03:16.138Z,7.32
2022-08-05T09:06:08.628Z,7.90
2022-08-05T09:08:40.140Z,7.32
2022-08-05T09:11:13.643Z,7.70
2022-08-05T09:14:00.691Z,7.40
2022-08-05T09:16:31.042Z,7.88
2022-08-05T09:18:59.594Z,7.35
2022-08-05T09:22:22.997Z,7.28
2022-08-05T09:24:17.887Z,7.68
2022-08-05T09:26:48.482Z,7.70
2022-08-05T09:29:20.423Z,7.68
2022-08-05T09:32:41.686Z,7.38
2022-08-05T09:34:55.107Z,7.35
2022-08-05T09:38:12.871Z,7.35
2022-08-05T09:40:30.033Z,7.18
2022-08-05T09:43:01.043Z,7.28
2022-08-05T09:46:07.640Z,7.70
2022-08-05T09:48:28.468Z,7.30
2022-08-05T09:50:57.987Z,7.00
2022-08-05T09:53:54.413Z,7.00
2022-08-05T09:56:25.907Z,6.85
2022-08-05T09:59:00.628Z,7.07
2022-08-05T10:01:31.774Z,7.40
2022-08-05T10:04:03.589Z,7.07
2022-08-05T10:06:32.173Z,7.80
2022-08-05T10:09:27.639Z,7.28
2022-08-05T10:12:18.609Z,7.20
2022-08-05T10:15:14.612Z,7.13
2022-08-05T10:17:54.598Z,7.13
2022-08-05T10:20:25.171Z,6.40
2022-08-05T10:22:53.310Z,7.35
2022-08-05T10:25:22.849Z,6.85
2022-08-05T10:28:13.662Z,6.85
2022-08-05T10:32:47.090Z,7.10
2022-08-05T10:33:30.536Z,7.13
2022-08-05T10:36:04.657Z,7.05
2022-08-05T10:38:33.576Z,6.85
2022-08-05T10:41:08.832Z,6.63
2022-08-05T10:43:48.609Z,6.38
2022-08-05T10:46:17.764Z,6.40
2022-08-05T10:48:57.124Z,7.03
2022-08-05T10:51:28.909Z,6.50
2022-08-05T10:54:01.646Z,6.43
2022-08-05T10:56:32.042Z,6.78
2022-08-05T10:59:12.207Z,6.95
2022-08-05T11:01:55.033Z,6.28
2022-08-05T11:04:31.799Z,6.38
2022-08-05T11:07:06.629Z,6.50
2022-08-05T11:09:46.130Z,7.03
2022-08-05T11:12:50.710Z,6.10
2022-08-05T11:16:01.252Z,7.10
2022-08-05T11:18:25.365Z,9.38
2022-08-05T11:20:53.535Z,10.18
2022-08-05T11:24:05.225Z,9.15
2022-08-05T11:26:28.171Z,9.13
2022-08-05T11:29:11.937Z,9.45
2022-08-05T11:31:58.329Z,8.93
2022-08-05T11:34:40.080Z,9.70
2022-08-05T11:38:37.340Z,9.32
2022-08-05T11:41:14.119Z,8.75
2022-08-05T11:44:00.890Z,8.98
2022-08-05T11:46:58.395Z,9.02
2022-08-05T11:49:27.216Z,8.77
2022-08-05T11:51:57.569Z,8.73
2022-08-05T11:54:33.308Z,9.23
2022-08-05T11:57:08.820Z,8.63
2022-08-05T11:59:51.630Z,9.25
2022-08-05T12:02:31.805Z,8.80
2022-08-05T12:05:01.149Z,8.68
2022-08-05T12:08:10.328Z,8.98
2022-08-05T12:10:43.492Z,8.50
2022-08-05T12:13:16.712Z,8.18
2022-08-05T12:15:49.903Z,9.35
2022-08-05T12:18:32.727Z,10.05
2022-08-05T12:21:10.947Z,9.15
2022-08-05T12:23:43.149Z,9.07
2022-08-05T12:26:11.545Z,9.43
2022-08-05T12:28:39.869Z,9.55
2022-08-05T12:31:07.982Z,9.82
2022-08-05T12:33:38.836Z,9.50
2022-08-05T12:36:08.600Z,9.57
2022-08-05T12:38:39.582Z,9.30
2022-08-05T12:41:13.484Z,9.20
2022-08-05T12:43:55.500Z,9.15
2022-08-05T12:46:28.856Z,9.57
2022-08-05T12:49:13.560Z,9.25
2022-08-05T12:52:13.900Z,9.93
2022-08-05T12:54:34.044Z,9.48
2022-08-05T12:57:03.674Z,8.88
2022-08-05T12:59:46.730Z,9.50
2022-08-05T13:02:22.229Z,9.43
2022-08-05T13:04:59.789Z,9.15
2022-08-05T13:10:20.096Z,8.88
2022-08-05T13:12:51.220Z,10.13
2022-08-05T13:15:41.680Z,9.75
2022-08-05T13:18:19.649Z,9.85
2022-08-05T13:20:50.078Z,9.82
2022-08-05T13:23:22.691Z,10.07
2022-08-05T13:25:58.889Z,10.10
2022-08-05T13:28:28.103Z,9.45
2022-08-05T13:30:57.284Z,9.30
2022-08-05T13:34:20.919Z,9.98
2022-08-05T13:36:15.160Z,9.00
2022-08-05T13:38:43.436Z,9.65
2022-08-05T13:41:12.080Z,9.60
2022-08-05T13:43:45.165Z,9.73
2022-08-05T13:46:38.020Z,9.43
2022-08-05T13:49:12.774Z,11.38
2022-08-05T13:51:45.898Z,10.55
2022-08-05T13:54:16.653Z,11.00
2022-08-05T13:56:51.543Z,10.30
2022-08-05T13:59:24.564Z,10.43
2022-08-05T14:01:57.528Z,10.77
2022-08-05T14:04:50.523Z,10.25
2022-08-05T14:08:00.083Z,10.35
2022-08-05T14:10:18.988Z,10.77
2022-08-05T14:12:57.105Z,10.13
2022-08-05T14:16:07.451Z,12.68
2022-08-05T14:18:17.699Z,13.65
2022-08-05T14:20:47.958Z,13.43
2022-08-05T14:23:25.110Z,12.75
2022-08-05T14:25:57.819Z,12.55
2022-08-05T14:28:28.384Z,11.88
2022-08-05T14:30:56.510Z,11.88
2022-08-05T14:33:24.659Z,11.73
2022-08-05T14:35:54.055Z,11.93
2022-08-05T14:38:27.783Z,11.68
2022-08-05T14:41:01.105Z,12.30
2022-08-05T14:44:02.084Z,11.77
2022-08-05T14:46:17.536Z,11.05
2022-08-05T14:48:49.842Z,11.35
2022-08-05T14:51:18.271Z,10.98
2022-08-05T14:54:26.338Z,12.05
2022-08-05T14:56:44.378Z,13.10
2022-08-05T14:59:15.409Z,13.38
2022-08-05T15:01:47.904Z,13.00
2022-08-05T15:04:20.556Z,12.95
2022-08-05T15:06:49.873Z,11.50
2022-08-05T15:09:51.142Z,10.80
2022-08-05T15:12:08.936Z,10.15
2022-08-05T15:14:48.373Z,9.70
2022-08-05T15:17:46.869Z,9.32
2022-08-05T15:20:13.414Z,9.13
2022-08-05T15:22:54.074Z,8.93
2022-08-05T15:25:40.870Z,11.50
2022-08-05T15:28:14.874Z,12.95
2022-08-05T15:30:45.501Z,13.75
2022-08-05T15:33:53.774Z,14.13
2022-08-05T15:36:03.933Z,15.10
2022-08-05T15:38:36.483Z,14.15
2022-08-05T15:41:22.584Z,15.25
2022-08-05T15:43:54.472Z,14.48
2022-08-05T15:46:24.111Z,14.02
2022-08-05T15:49:00.950Z,13.30
2022-08-05T15:52:04.107Z,12.15
2022-08-05T15:54:34.802Z,11.68
2022-08-05T15:57:08.019Z,11.20
2022-08-05T15:59:38.188Z,10.65
2022-08-05T16:02:09.739Z,10.73
2022-08-05T16:04:43.495Z,10.00
2022-08-05T16:07:13.353Z,10.27
2022-08-05T16:09:42.066Z,10.00
2022-08-05T16:12:13.152Z,10.70
2022-08-05T16:14:43.333Z,10.30
2022-08-05T16:17:11.735Z,12.10
2022-08-05T16:20:04.502Z,13.13
2022-08-05T16:22:34.008Z,14.20
2022-08-05T16:25:08.170Z,12.80
2022-08-05T16:28:01.039Z,11.30
2022-08-05T16:30:29.186Z,10.80
2022-08-05T16:32:58.802Z,10.93
2022-08-05T16:35:28.514Z,10.98
2022-08-05T16:38:02.957Z,10.35
2022-08-05T16:40:51.926Z,10.32
2022-08-05T16:43:25.800Z,9.93
2022-08-05T16:46:04.178Z,10.00
2022-08-05T16:48:37.739Z,9.68
2022-08-05T16:51:09.168Z,9.40
2022-08-05T16:54:02.545Z,9.27
2022-08-05T16:56:29.253Z,9.57
2022-08-05T16:59:00.858Z,9.68
2022-08-05T17:01:54.997Z,8.70
2022-08-05T17:04:26.403Z,9.43
2022-08-05T17:06:56.918Z,9.35
2022-08-05T17:09:28.274Z,9.10
2022-08-05T17:11:59.953Z,8.60
2022-08-05T17:14:36.901Z,9.07
2022-08-05T17:17:06.812Z,9.25
2022-08-05T17:19:45.544Z,9.20
2022-08-05T17:22:17.936Z,9.30
2022-08-05T17:24:57.412Z,8.75
2022-08-05T17:27:27.257Z,9.35
2022-08-05T17:30:04.743Z,8.80
2022-08-05T17:32:42.037Z,8.55
2022-08-05T17:35:12.113Z,8.75
2022-08-05T17:37:45.413Z,8.90
2022-08-05T17:40:17.877Z,9.15
2022-08-05T17:42:50.996Z,8.45
2022-08-05T17:45:22.558Z,9.02
2022-08-05T17:47:54.350Z,9.20
2022-08-05T17:50:28.315Z,9.10
2022-08-05T17:52:58.953Z,10.00
2022-08-05T17:55:38.126Z,10.48
2022-08-05T17:58:12.660Z,9.45
2022-08-05T18:00:47.835Z,10.23
2022-08-05T18:06:12.142Z,9.32
2022-08-05T18:08:44.854Z,8.98
2022-08-05T18:11:24.841Z,9.68
2022-08-05T18:14:04.336Z,9.57
2022-08-05T18:16:50.993Z,9.55
2022-08-05T18:19:22.942Z,9.65
2022-08-05T18:22:08.420Z,9.48
2022-08-05T18:24:39.607Z,9.90
2022-08-05T18:27:12.837Z,10.52
2022-08-05T18:29:51.919Z,9.82
2022-08-05T18:32:28.342Z,9.90
2022-08-05T18:34:57.852Z,9.57
2022-08-05T18:37:34.825Z,9.30
2022-08-05T18:40:33.930Z,9.32
2022-08-05T18:42:58.380Z,9.60
2022-08-05T18:45:41.333Z,9.32
2022-08-05T18:48:17.405Z,9.32
2022-08-05T18:52:03.256Z,9.65
2022-08-05T18:54:04.541Z,9.60
2022-08-05T18:56:32.630Z,9.20
2022-08-05T18:59:01.923Z,9.63
2022-08-05T19:01:58.081Z,9.30
2022-08-05T19:04:29.400Z,9.43
2022-08-05T19:06:57.529Z,9.07
2022-08-05T19:09:25.629Z,9.15
2022-08-05T19:12:00.027Z,9.02
2022-08-05T19:14:59.119Z,9.52
2022-08-05T19:17:17.624Z,9.35
2022-08-05T19:19:48.857Z,8.73
2022-08-05T19:22:17.784Z,9.43
2022-08-05T19:24:55.865Z,9.55
2022-08-05T19:27:30.268Z,9.27
2022-08-05T19:29:58.984Z,8.95
2022-08-05T19:32:27.819Z,9.18
2022-08-05T19:34:58.099Z,8.80
2022-08-05T19:37:34.921Z,10.30
2022-08-05T19:40:15.067Z,10.70
2022-08-05T19:43:04.635Z,10.60
2022-08-05T19:45:33.336Z,9.52
2022-08-05T19:48:05.854Z,9.30
2022-08-05T19:50:36.758Z,9.60
2022-08-05T19:53:09.659Z,9.38
2022-08-05T19:56:12.358Z,9.48
2022-08-05T19:58:29.076Z,9.80
2022-08-05T20:00:58.182Z,9.43
2022-08-05T20:03:27.357Z,9.45
2022-08-05T20:06:11.696Z,9.02
2022-08-05T20:08:47.574Z,8.55
2022-08-05T20:11:19.379Z,8.55
2022-08-05T20:13:54.750Z,8.82
2022-08-05T20:16:36.704Z,8.98
2022-08-05T20:19:05.280Z,8.45
2022-08-05T20:21:34.981Z,8.70
2022-08-05T20:24:07.275Z,8.90
2022-08-05T20:26:39.713Z,9.23
2022-08-05T20:29:27.301Z,8.68
2022-08-05T20:31:58.321Z,9.30
2022-08-05T20:34:27.891Z,8.38
2022-08-05T20:36:57.416Z,8.57
2022-08-05T20:39:25.785Z,8.80
2022-08-05T20:42:03.768Z,8.80
2022-08-05T20:44:32.833Z,8.57
2022-08-05T20:47:07.513Z,8.40
2022-08-05T20:49:39.743Z,8.63
2022-08-05T20:52:10.548Z,8.63
2022-08-05T20:54:59.963Z,8.40
2022-08-05T20:57:43.618Z,8.43
2022-08-05T21:00:40.661Z,8.88
2022-08-05T21:03:07.049Z,9.10
2022-08-05T21:05:48.098Z,8.27
2022-08-05T21:08:26.430Z,8.70
2022-08-05T21:11:01.127Z,8.45
2022-08-05T21:13:48.413Z,8.45
2022-08-05T21:16:29.326Z,8.57
2022-08-05T21:19:00.027Z,8.48
2022-08-05T21:21:44.522Z,8.57
2022-08-05T21:24:19.593Z,8.18
2022-08-05T21:26:53.309Z,8.38
2022-08-05T21:29:26.310Z,8.57
2022-08-05T21:31:55.010Z,8.30
2022-08-05T21:34:24.148Z,8.73
2022-08-05T21:36:52.543Z,8.23
2022-08-05T21:39:26.577Z,8.63
2022-08-05T21:42:01.610Z,8.35
2022-08-05T21:44:31.090Z,8.25
2022-08-05T21:46:59.934Z,7.90
2022-08-05T21:49:48.553Z,8.70
2022-08-05T21:52:26.946Z,8.45
2022-08-05T21:55:06.812Z,8.40
2022-08-05T21:57:35.453Z,8.75
2022-08-05T22:00:06.376Z,8.30
2022-08-05T22:02:42.489Z,8.20
2022-08-05T22:05:11.397Z,8.25
2022-08-05T22:07:58.296Z,7.95
2022-08-05T22:10:29.398Z,8.30
2022-08-05T22:13:08.852Z,8.18
2022-08-05T22:16:01.211Z,8.75
2022-08-05T22:18:35.776Z,22.48
2022-08-05T22:21:04.853Z,16.60
2022-08-05T22:24:12.945Z,21.02
2022-08-05T22:27:17.223Z,21.25
2022-08-05T22:29:46.013Z,19.58
2022-08-05T22:32:17.310Z,18.70
2022-08-05T22:34:45.919Z,18.83
2022-08-05T22:37:14.084Z,16.48
2022-08-05T22:39:42.221Z,16.63
2022-08-05T22:42:25.293Z,16.20
2022-08-05T22:44:56.957Z,15.07
2022-08-05T22:47:29.464Z,15.68
2022-08-05T22:50:22.764Z,14.43
2022-08-05T22:52:48.332Z,13.88
2022-08-05T22:55:19.287Z,14.43
2022-08-05T22:57:50.970Z,14.10
2022-08-05T23:00:20.842Z,13.55
2022-08-05T23:02:49.758Z,13.60
2022-08-05T23:05:18.540Z,12.27
2022-08-05T23:07:49.664Z,11.85
2022-08-05T23:10:20.016Z,13.07
2022-08-05T23:12:51.464Z,12.30
2022-08-05T23:15:29.624Z,11.80
2022-08-05T23:18:03.682Z,12.10
2022-08-05T23:20:39.524Z,11.55
2022-08-05T23:23:08.966Z,12.50
2022-08-05T23:25:52.003Z,11.88
2022-08-05T23:28:27.761Z,11.68
2022-08-05T23:31:15.788Z,11.00
2022-08-05T23:34:05.883Z,11.80
2022-08-05T23:36:38.471Z,10.82
2022-08-05T23:39:08.601Z,10.60
2022-08-05T23:41:37.320Z,10.38
2022-08-05T23:44:10.469Z,10.70
2022-08-05T23:46:39.267Z,10.13
2022-08-05T23:49:17.042Z,10.10
2022-08-05T23:52:08.044Z,10.43
2022-08-05T23:54:38.316Z,9.32
2022-08-05T23:57:07.679Z,9.75
